sensor_id;sensor_type;location;lat;lon;timestamp;pressure;altitude;pressure_sealevel;temperature;humidity
37690;BME280;23527;48.150;11.610;2022-08-04T00:05:36;95694.78;;;30.97;30.23
37690;BME280;23527;48.150;11.610;2022-08-04T00:08:43;95682.03;;;30.89;30.07
37690;BME280;23527;48.150;11.610;2022-08-04T00:11:44;95695.56;;;30.84;30.47
37690;BME280;23527;48.150;11.610;2022-08-04T00:14:46;95695.63;;;30.79;29.93
37690;BME280;23527;48.150;11.610;2022-08-04T00:17:48;95697.63;;;30.73;30.23
37690;BME280;23527;48.150;11.610;2022-08-04T00:20:49;95695.03;;;30.68;30.16
37690;BME280;23527;48.150;11.610;2022-08-04T00:23:53;95693.19;;;30.64;30.54
37690;BME280;23527;48.150;11.610;2022-08-04T00:26:54;95696.00;;;30.59;30.38
37690;BME280;23527;48.150;11.610;2022-08-04T00:29:55;95700.34;;;30.55;30.47
37690;BME280;23527;48.150;11.610;2022-08-04T00:32:55;95692.31;;;30.49;30.98
37690;BME280;23527;48.150;11.610;2022-08-04T00:35:56;95702.91;;;30.46;30.98
37690;BME280;23527;48.150;11.610;2022-08-04T00:38:58;95689.22;;;30.42;31.17
37690;BME280;23527;48.150;11.610;2022-08-04T00:51:47;95693.06;;;30.23;30.99
37690;BME280;23527;48.150;11.610;2022-08-04T01:01:11;95692.09;;;30.13;31.34
37690;BME280;23527;48.150;11.610;2022-08-04T01:16:30;95695.72;;;30.04;31.47
37690;BME280;23527;48.150;11.610;2022-08-04T01:22:58;95694.19;;;29.98;31.52
37690;BME280;23527;48.150;11.610;2022-08-04T01:29:09;95698.03;;;29.92;31.29
37690;BME280;23527;48.150;11.610;2022-08-04T01:32:27;95697.28;;;29.86;31.37
37690;BME280;23527;48.150;11.610;2022-08-04T01:35:43;95698.16;;;29.82;31.69
37690;BME280;23527;48.150;11.610;2022-08-04T01:38:46;95699.03;;;29.77;31.71
37690;BME280;23527;48.150;11.610;2022-08-04T01:41:47;95701.19;;;29.75;31.38
37690;BME280;23527;48.150;11.610;2022-08-04T01:44:48;95703.38;;;29.73;31.37
37690;BME280;23527;48.150;11.610;2022-08-04T01:47:49;95699.31;;;29.75;31.86
37690;BME280;23527;48.150;11.610;2022-08-04T01:50:55;95698.50;;;29.75;31.51
37690;BME280;23527;48.150;11.610;2022-08-04T01:53:56;95697.78;;;29.69;31.28
37690;BME280;23527;48.150;11.610;2022-08-04T01:56:57;95693.00;;;29.66;31.52
37690;BME280;23527;48.150;11.610;2022-08-04T01:59:57;95700.03;;;29.62;31.45
37690;BME280;23527;48.150;11.610;2022-08-04T02:02:58;95691.72;;;29.59;31.72
37690;BME280;23527;48.150;11.610;2022-08-04T02:06:03;95695.59;;;29.53;32.27
37690;BME280;23527;48.150;11.610;2022-08-04T02:09:28;95701.84;;;29.43;32.16
37690;BME280;23527;48.150;11.610;2022-08-04T02:15:45;95701.94;;;29.33;32.32
37690;BME280;23527;48.150;11.610;2022-08-04T02:19:03;95699.34;;;29.28;32.63
37690;BME280;23527;48.150;11.610;2022-08-04T02:22:07;95701.78;;;29.24;32.55
37690;BME280;23527;48.150;11.610;2022-08-04T02:25:09;95700.75;;;29.20;32.61
37690;BME280;23527;48.150;11.610;2022-08-04T02:31:32;95702.75;;;29.10;33.03
37690;BME280;23527;48.150;11.610;2022-08-04T02:34:39;95692.56;;;29.06;32.84
37690;BME280;23527;48.150;11.610;2022-08-04T02:37:48;95693.66;;;29.05;33.00
37690;BME280;23527;48.150;11.610;2022-08-04T02:40:53;95690.97;;;29.05;33.26
37690;BME280;23527;48.150;11.610;2022-08-04T02:43:55;95700.69;;;29.01;33.26
37690;BME280;23527;48.150;11.610;2022-08-04T02:46:56;95689.19;;;28.96;33.44
37690;BME280;23527;48.150;11.610;2022-08-04T02:49:58;95694.13;;;28.89;33.85
37690;BME280;23527;48.150;11.610;2022-08-04T02:53:01;95694.69;;;28.86;34.01
37690;BME280;23527;48.150;11.610;2022-08-04T02:56:02;95690.66;;;28.83;33.93
37690;BME280;23527;48.150;11.610;2022-08-04T02:59:04;95685.31;;;28.78;34.04
37690;BME280;23527;48.150;11.610;2022-08-04T03:02:05;95690.22;;;28.71;33.85
37690;BME280;23527;48.150;11.610;2022-08-04T03:05:06;95692.38;;;28.69;33.75
37690;BME280;23527;48.150;11.610;2022-08-04T03:17:53;95678.59;;;28.52;34.03
37690;BME280;23527;48.150;11.610;2022-08-04T03:27:40;95680.56;;;28.41;34.37
37690;BME280;23527;48.150;11.610;2022-08-04T03:33:59;95682.44;;;28.41;34.65
37690;BME280;23527;48.150;11.610;2022-08-04T03:56:25;95686.03;;;28.26;35.09
37690;BME280;23527;48.150;11.610;2022-08-04T04:15:15;95694.34;;;28.24;35.09
37690;BME280;23527;48.150;11.610;2022-08-04T04:28:26;95698.91;;;28.24;35.44
37690;BME280;23527;48.150;11.610;2022-08-04T04:31:33;95700.22;;;28.26;35.32
37690;BME280;23527;48.150;11.610;2022-08-04T04:44:09;95690.75;;;28.39;35.09
37690;BME280;23527;48.150;11.610;2022-08-04T04:47:22;95693.16;;;28.41;35.58
37690;BME280;23527;48.150;11.610;2022-08-04T04:53:49;95710.22;;;28.50;35.27
37690;BME280;23527;48.150;11.610;2022-08-04T05:00:10;95713.66;;;28.60;35.39
37690;BME280;23527;48.150;11.610;2022-08-04T05:06:16;95713.56;;;28.70;35.66
37690;BME280;23527;48.150;11.610;2022-08-04T05:09:31;95715.41;;;28.75;35.48
37690;BME280;23527;48.150;11.610;2022-08-04T05:15:41;95713.69;;;28.89;35.64
37690;BME280;23527;48.150;11.610;2022-08-04T05:18:43;95718.16;;;28.99;35.35
37690;BME280;23527;48.150;11.610;2022-08-04T05:21:50;95722.03;;;29.12;35.38
37690;BME280;23527;48.150;11.610;2022-08-04T05:24:54;95712.00;;;29.22;35.15
37690;BME280;23527;48.150;11.610;2022-08-04T05:28:09;95714.53;;;29.37;35.25
37690;BME280;23527;48.150;11.610;2022-08-04T05:31:10;95706.31;;;29.53;35.13
37690;BME280;23527;48.150;11.610;2022-08-04T05:34:12;95704.03;;;29.65;35.05
37690;BME280;23527;48.150;11.610;2022-08-04T05:37:16;95705.78;;;29.74;34.66
37690;BME280;23527;48.150;11.610;2022-08-04T05:40:17;95706.50;;;29.80;35.18
37690;BME280;23527;48.150;11.610;2022-08-04T05:43:18;95714.19;;;29.87;35.20
37690;BME280;23527;48.150;11.610;2022-08-04T05:46:19;95708.78;;;29.92;34.59
37690;BME280;23527;48.150;11.610;2022-08-04T05:49:19;95710.53;;;30.01;34.63
37690;BME280;23527;48.150;11.610;2022-08-04T05:52:20;95714.47;;;30.09;34.55
37690;BME280;23527;48.150;11.610;2022-08-04T05:55:21;95704.66;;;30.18;34.36
37690;BME280;23527;48.150;11.610;2022-08-04T05:58:22;95704.00;;;30.26;34.78
37690;BME280;23527;48.150;11.610;2022-08-04T06:01:23;95708.13;;;30.37;34.18
37690;BME280;23527;48.150;11.610;2022-08-04T06:04:30;95703.97;;;30.45;34.43
37690;BME280;23527;48.150;11.610;2022-08-04T06:07:31;95697.94;;;30.53;33.53
37690;BME280;23527;48.150;11.610;2022-08-04T06:10:31;95703.97;;;30.64;34.10
37690;BME280;23527;48.150;11.610;2022-08-04T06:13:36;95702.22;;;30.73;33.42
37690;BME280;23527;48.150;11.610;2022-08-04T06:16:40;95710.03;;;30.88;33.06
37690;BME280;23527;48.150;11.610;2022-08-04T06:19:42;95698.66;;;30.91;31.63
37690;BME280;23527;48.150;11.610;2022-08-04T06:22:43;95711.84;;;31.06;32.71
37690;BME280;23527;48.150;11.610;2022-08-04T06:25:49;95709.09;;;31.11;32.65
37690;BME280;23527;48.150;11.610;2022-08-04T06:28:51;95716.69;;;31.23;32.31
37690;BME280;23527;48.150;11.610;2022-08-04T06:31:52;95713.28;;;31.45;31.29
37690;BME280;23527;48.150;11.610;2022-08-04T06:35:02;95709.69;;;31.49;31.24
37690;BME280;23527;48.150;11.610;2022-08-04T06:38:03;95706.91;;;31.55;31.53
37690;BME280;23527;48.150;11.610;2022-08-04T06:41:04;95713.44;;;31.67;30.87
37690;BME280;23527;48.150;11.610;2022-08-04T06:44:08;95699.91;;;31.95;31.13
37690;BME280;23527;48.150;11.610;2022-08-04T06:47:09;95709.13;;;32.16;30.45
37690;BME280;23527;48.150;11.610;2022-08-04T06:50:10;95703.22;;;32.28;30.02
37690;BME280;23527;48.150;11.610;2022-08-04T06:53:11;95705.22;;;32.36;30.29
37690;BME280;23527;48.150;11.610;2022-08-04T06:56:11;95705.00;;;32.54;30.74
37690;BME280;23527;48.150;11.610;2022-08-04T06:59:12;95706.63;;;32.78;30.40
37690;BME280;23527;48.150;11.610;2022-08-04T07:02:15;95705.41;;;32.84;29.64
37690;BME280;23527;48.150;11.610;2022-08-04T07:05:18;95702.66;;;33.06;30.66
37690;BME280;23527;48.150;11.610;2022-08-04T07:08:19;95705.16;;;33.25;29.58
37690;BME280;23527;48.150;11.610;2022-08-04T07:11:19;95699.69;;;33.47;29.23
37690;BME280;23527;48.150;11.610;2022-08-04T07:14:20;95707.16;;;33.50;27.78
37690;BME280;23527;48.150;11.610;2022-08-04T07:17:20;95704.81;;;33.66;27.61
37690;BME280;23527;48.150;11.610;2022-08-04T07:20:22;95701.91;;;33.93;28.14
37690;BME280;23527;48.150;11.610;2022-08-04T07:23:23;95704.78;;;34.06;27.31
37690;BME280;23527;48.150;11.610;2022-08-04T07:26:27;95707.28;;;34.11;27.50
37690;BME280;23527;48.150;11.610;2022-08-04T07:29:28;95701.31;;;34.31;26.64
37690;BME280;23527;48.150;11.610;2022-08-04T07:32:28;95695.91;;;34.48;27.01
37690;BME280;23527;48.150;11.610;2022-08-04T07:35:28;95708.13;;;34.63;26.73
37690;BME280;23527;48.150;11.610;2022-08-04T07:38:29;95706.19;;;34.63;26.13
37690;BME280;23527;48.150;11.610;2022-08-04T07:41:29;95709.25;;;34.79;26.66
37690;BME280;23527;48.150;11.610;2022-08-04T07:44:30;95699.00;;;35.02;25.72
37690;BME280;23527;48.150;11.610;2022-08-04T07:47:31;95705.47;;;35.18;25.52
37690;BME280;23527;48.150;11.610;2022-08-04T07:50:32;95702.16;;;35.13;25.04
37690;BME280;23527;48.150;11.610;2022-08-04T07:53:33;95699.38;;;35.30;24.60
37690;BME280;23527;48.150;11.610;2022-08-04T07:56:34;95703.06;;;35.34;24.12
37690;BME280;23527;48.150;11.610;2022-08-04T07:59:35;95693.97;;;35.30;25.17
37690;BME280;23527;48.150;11.610;2022-08-04T08:02:35;95694.22;;;35.46;25.52
37690;BME280;23527;48.150;11.610;2022-08-04T08:05:37;95701.75;;;35.69;25.39
37690;BME280;23527;48.150;11.610;2022-08-04T08:08:38;95695.94;;;35.88;25.45
37690;BME280;23527;48.150;11.610;2022-08-04T08:11:40;95696.72;;;36.10;24.91
37690;BME280;23527;48.150;11.610;2022-08-04T08:14:41;95698.09;;;36.24;24.51
37690;BME280;23527;48.150;11.610;2022-08-04T08:17:42;95694.06;;;36.30;23.90
37690;BME280;23527;48.150;11.610;2022-08-04T08:20:45;95702.13;;;36.18;24.10
37690;BME280;23527;48.150;11.610;2022-08-04T08:23:46;95702.22;;;36.30;23.36
37690;BME280;23527;48.150;11.610;2022-08-04T08:26:47;95698.38;;;36.31;22.77
37690;BME280;23527;48.150;11.610;2022-08-04T08:29:47;95697.88;;;36.50;24.42
37690;BME280;23527;48.150;11.610;2022-08-04T08:32:48;95694.31;;;36.58;23.39
37690;BME280;23527;48.150;11.610;2022-08-04T08:48:27;95699.19;;;36.65;23.58
37690;BME280;23527;48.150;11.610;2022-08-04T08:54:40;95691.16;;;36.68;22.78
37690;BME280;23527;48.150;11.610;2022-08-04T08:57:54;95688.00;;;36.66;22.27
37690;BME280;23527;48.150;11.610;2022-08-04T09:01:04;95692.59;;;36.74;22.68
37690;BME280;23527;48.150;11.610;2022-08-04T09:04:14;95702.22;;;36.84;22.36
37690;BME280;23527;48.150;11.610;2022-08-04T09:10:48;95694.50;;;36.74;22.06
37690;BME280;23527;48.150;11.610;2022-08-04T09:13:55;95697.31;;;36.78;22.56
37690;BME280;23527;48.150;11.610;2022-08-04T09:16:59;95691.56;;;36.79;21.14
37690;BME280;23527;48.150;11.610;2022-08-04T09:20:03;95690.09;;;36.82;21.51
37690;BME280;23527;48.150;11.610;2022-08-04T09:23:08;95689.25;;;36.69;21.24
37690;BME280;23527;48.150;11.610;2022-08-04T09:35:45;95699.41;;;36.93;21.79
37690;BME280;23527;48.150;11.610;2022-08-04T09:39:07;95681.78;;;36.99;20.90
37690;BME280;23527;48.150;11.610;2022-08-04T09:48:13;95692.38;;;36.92;21.12
37690;BME280;23527;48.150;11.610;2022-08-04T09:57:50;95674.44;;;37.11;22.90
37690;BME280;23527;48.150;11.610;2022-08-04T10:00:54;95674.56;;;37.15;21.57
37690;BME280;23527;48.150;11.610;2022-08-04T10:03:58;95677.97;;;37.12;20.33
37690;BME280;23527;48.150;11.610;2022-08-04T10:10:18;95679.59;;;37.37;23.11
37690;BME280;23527;48.150;11.610;2022-08-04T10:19:34;95675.28;;;37.61;20.72
37690;BME280;23527;48.150;11.610;2022-08-04T10:22:38;95667.94;;;37.73;21.17
37690;BME280;23527;48.150;11.610;2022-08-04T10:29:01;95671.75;;;37.85;20.02
37690;BME280;23527;48.150;11.610;2022-08-04T10:32:08;95662.34;;;37.82;19.55
37690;BME280;23527;48.150;11.610;2022-08-04T10:39:12;95664.03;;;37.99;21.13
37690;BME280;23527;48.150;11.610;2022-08-04T10:48:33;95655.84;;;38.11;22.08
37690;BME280;23527;48.150;11.610;2022-08-04T10:54:40;95662.09;;;38.11;20.70
37690;BME280;23527;48.150;11.610;2022-08-04T10:57:49;95654.66;;;38.08;20.15
37690;BME280;23527;48.150;11.610;2022-08-04T11:00:49;95652.31;;;38.23;19.91
37690;BME280;23527;48.150;11.610;2022-08-04T11:03:57;95648.66;;;38.31;19.55
37690;BME280;23527;48.150;11.610;2022-08-04T11:06:59;95637.50;;;38.36;18.92
37690;BME280;23527;48.150;11.610;2022-08-04T11:09:59;95641.13;;;38.40;18.34
37690;BME280;23527;48.150;11.610;2022-08-04T11:13:01;95642.66;;;38.53;19.40
37690;BME280;23527;48.150;11.610;2022-08-04T11:16:04;95635.16;;;38.62;17.71
37690;BME280;23527;48.150;11.610;2022-08-04T11:19:16;95641.47;;;38.66;18.32
37690;BME280;23527;48.150;11.610;2022-08-04T11:22:23;95635.00;;;38.71;17.77
37690;BME280;23527;48.150;11.610;2022-08-04T11:25:25;95630.06;;;38.76;17.72
37690;BME280;23527;48.150;11.610;2022-08-04T11:31:43;95625.88;;;38.95;19.21
37690;BME280;23527;48.150;11.610;2022-08-04T11:34:47;95634.34;;;39.05;18.69
37690;BME280;23527;48.150;11.610;2022-08-04T11:37:50;95628.44;;;39.19;18.27
37690;BME280;23527;48.150;11.610;2022-08-04T11:41:04;95628.19;;;39.24;17.27
37690;BME280;23527;48.150;11.610;2022-08-04T11:44:06;95626.88;;;39.34;16.60
37690;BME280;23527;48.150;11.610;2022-08-04T11:50:44;95631.44;;;39.45;16.46
37690;BME280;23527;48.150;11.610;2022-08-04T11:53:47;95624.75;;;39.43;16.41
37690;BME280;23527;48.150;11.610;2022-08-04T11:56:48;95626.66;;;39.58;16.97
37690;BME280;23527;48.150;11.610;2022-08-04T11:59:49;95620.69;;;39.68;18.05
37690;BME280;23527;48.150;11.610;2022-08-04T12:03:16;95620.28;;;39.85;17.57
37690;BME280;23527;48.150;11.610;2022-08-04T12:07:04;95625.41;;;39.87;16.24
37690;BME280;23527;48.150;11.610;2022-08-04T12:09:47;95626.41;;;39.98;15.59
37690;BME280;23527;48.150;11.610;2022-08-04T12:18:53;95606.00;;;40.50;16.54
37690;BME280;23527;48.150;11.610;2022-08-04T12:21:59;95613.38;;;40.69;16.44
37690;BME280;23527;48.150;11.610;2022-08-04T12:25:02;95609.78;;;40.84;15.08
37690;BME280;23527;48.150;11.610;2022-08-04T12:28:06;95611.97;;;40.98;14.80
37690;BME280;23527;48.150;11.610;2022-08-04T12:31:11;95611.66;;;41.03;14.74
37690;BME280;23527;48.150;11.610;2022-08-04T12:34:31;95610.47;;;41.23;15.29
37690;BME280;23527;48.150;11.610;2022-08-04T12:40:41;95612.84;;;41.51;15.99
37690;BME280;23527;48.150;11.610;2022-08-04T12:43:45;95604.09;;;41.65;14.66
37690;BME280;23527;48.150;11.610;2022-08-04T12:46:46;95608.19;;;41.78;14.61
37690;BME280;23527;48.150;11.610;2022-08-04T12:49:47;95604.47;;;41.93;14.45
37690;BME280;23527;48.150;11.610;2022-08-04T12:52:50;95612.50;;;42.09;14.97
37690;BME280;23527;48.150;11.610;2022-08-04T12:55:50;95598.59;;;42.21;13.81
37690;BME280;23527;48.150;11.610;2022-08-04T12:58:51;95598.66;;;42.28;13.52
37690;BME280;23527;48.150;11.610;2022-08-04T13:01:52;95595.38;;;42.49;13.95
37690;BME280;23527;48.150;11.610;2022-08-04T13:04:53;95594.28;;;42.53;14.02
37690;BME280;23527;48.150;11.610;2022-08-04T13:07:54;95595.19;;;42.68;14.75
37690;BME280;23527;48.150;11.610;2022-08-04T13:10:56;95592.22;;;42.80;14.61
37690;BME280;23527;48.150;11.610;2022-08-04T13:13:57;95589.38;;;42.73;14.51
37690;BME280;23527;48.150;11.610;2022-08-04T13:16:58;95585.97;;;42.83;13.85
37690;BME280;23527;48.150;11.610;2022-08-04T13:20:00;95584.50;;;42.93;13.16
37690;BME280;23527;48.150;11.610;2022-08-04T13:23:13;95572.06;;;43.06;13.77
37690;BME280;23527;48.150;11.610;2022-08-04T13:26:14;95580.88;;;43.26;13.65
37690;BME280;23527;48.150;11.610;2022-08-04T13:29:15;95575.47;;;43.36;13.72
37690;BME280;23527;48.150;11.610;2022-08-04T13:32:18;95580.19;;;43.43;13.44
37690;BME280;23527;48.150;11.610;2022-08-04T13:35:21;95575.13;;;43.45;13.41
37690;BME280;23527;48.150;11.610;2022-08-04T13:38:22;95580.22;;;43.47;13.49
37690;BME280;23527;48.150;11.610;2022-08-04T13:41:24;95573.22;;;43.56;13.64
37690;BME280;23527;48.150;11.610;2022-08-04T13:44:27;95567.00;;;43.59;13.55
37690;BME280;23527;48.150;11.610;2022-08-04T13:47:29;95570.59;;;43.74;13.78
37690;BME280;23527;48.150;11.610;2022-08-04T13:50:30;95560.03;;;43.76;13.87
37690;BME280;23527;48.150;11.610;2022-08-04T13:53:32;95551.03;;;43.83;13.25
37690;BME280;23527;48.150;11.610;2022-08-04T13:56:44;95560.88;;;43.87;12.63
37690;BME280;23527;48.150;11.610;2022-08-04T13:59:47;95551.88;;;43.90;13.21
37690;BME280;23527;48.150;11.610;2022-08-04T14:03:02;95549.13;;;43.90;12.51
37690;BME280;23527;48.150;11.610;2022-08-04T14:06:15;95549.47;;;43.85;12.96
37690;BME280;23527;48.150;11.610;2022-08-04T14:09:18;95543.59;;;43.80;12.97
37690;BME280;23527;48.150;11.610;2022-08-04T14:12:18;95541.66;;;43.87;13.95
37690;BME280;23527;48.150;11.610;2022-08-04T14:15:35;95546.00;;;43.92;13.53
37690;BME280;23527;48.150;11.610;2022-08-04T14:18:36;95541.28;;;43.89;13.50
37690;BME280;23527;48.150;11.610;2022-08-04T14:21:36;95543.69;;;44.01;13.72
37690;BME280;23527;48.150;11.610;2022-08-04T14:24:37;95539.00;;;44.09;12.77
37690;BME280;23527;48.150;11.610;2022-08-04T14:27:55;95535.88;;;44.07;13.29
37690;BME280;23527;48.150;11.610;2022-08-04T14:31:16;95544.50;;;44.05;12.75
37690;BME280;23527;48.150;11.610;2022-08-04T14:34:26;95531.16;;;44.03;12.26
37690;BME280;23527;48.150;11.610;2022-08-04T14:37:26;95535.00;;;43.95;13.05
37690;BME280;23527;48.150;11.610;2022-08-04T14:40:28;95524.00;;;43.88;13.10
37690;BME280;23527;48.150;11.610;2022-08-04T14:43:29;95537.66;;;43.70;12.77
37690;BME280;23527;48.150;11.610;2022-08-04T14:46:29;95527.34;;;43.57;12.59
37690;BME280;23527;48.150;11.610;2022-08-04T14:49:29;95532.91;;;43.60;13.50
37690;BME280;23527;48.150;11.610;2022-08-04T14:52:29;95525.84;;;43.59;13.40
37690;BME280;23527;48.150;11.610;2022-08-04T14:55:30;95529.28;;;43.49;13.23
37690;BME280;23527;48.150;11.610;2022-08-04T14:58:31;95524.56;;;43.46;13.49
37690;BME280;23527;48.150;11.610;2022-08-04T15:01:32;95533.19;;;43.41;13.66
37690;BME280;23527;48.150;11.610;2022-08-04T15:04:33;95527.97;;;43.29;14.43
37690;BME280;23527;48.150;11.610;2022-08-04T15:07:33;95530.69;;;43.22;14.03
37690;BME280;23527;48.150;11.610;2022-08-04T15:10:33;95524.28;;;43.07;13.34
37690;BME280;23527;48.150;11.610;2022-08-04T15:13:34;95525.28;;;42.81;13.97
37690;BME280;23527;48.150;11.610;2022-08-04T15:16:35;95527.91;;;42.71;14.20
37690;BME280;23527;48.150;11.610;2022-08-04T15:19:36;95516.72;;;42.46;13.62
37690;BME280;23527;48.150;11.610;2022-08-04T15:22:36;95525.56;;;42.32;14.04
37690;BME280;23527;48.150;11.610;2022-08-04T15:25:37;95525.00;;;42.16;13.59
37690;BME280;23527;48.150;11.610;2022-08-04T15:28:39;95528.00;;;42.04;13.63
37690;BME280;23527;48.150;11.610;2022-08-04T15:31:41;95517.22;;;41.88;13.68
37690;BME280;23527;48.150;11.610;2022-08-04T15:34:44;95520.56;;;41.74;14.24
37690;BME280;23527;48.150;11.610;2022-08-04T15:37:51;95514.06;;;41.56;14.27
37690;BME280;23527;48.150;11.610;2022-08-04T15:40:55;95508.81;;;41.44;15.50
37690;BME280;23527;48.150;11.610;2022-08-04T15:44:25;95509.81;;;41.32;15.76
37690;BME280;23527;48.150;11.610;2022-08-04T15:47:19;95505.31;;;41.17;15.24
37690;BME280;23527;48.150;11.610;2022-08-04T15:50:19;95500.81;;;41.05;15.23
37690;BME280;23527;48.150;11.610;2022-08-04T15:53:20;95501.44;;;40.95;15.23
37690;BME280;23527;48.150;11.610;2022-08-04T16:02:42;95490.41;;;40.65;15.55
37690;BME280;23527;48.150;11.610;2022-08-04T16:05:43;95491.09;;;40.58;15.53
37690;BME280;23527;48.150;11.610;2022-08-04T16:11:49;95494.91;;;40.31;15.36
37690;BME280;23527;48.150;11.610;2022-08-04T16:14:50;95482.25;;;40.23;15.37
37690;BME280;23527;48.150;11.610;2022-08-04T16:17:50;95491.09;;;40.16;15.74
37690;BME280;23527;48.150;11.610;2022-08-04T16:20:54;95481.06;;;40.01;15.37
37690;BME280;23527;48.150;11.610;2022-08-04T16:23:59;95489.97;;;39.98;15.97
37690;BME280;23527;48.150;11.610;2022-08-04T16:27:06;95489.84;;;39.91;15.45
37690;BME280;23527;48.150;11.610;2022-08-04T16:30:10;95487.97;;;39.95;15.96
37690;BME280;23527;48.150;11.610;2022-08-04T16:33:12;95480.53;;;39.92;16.28
37690;BME280;23527;48.150;11.610;2022-08-04T16:36:12;95486.34;;;39.91;16.11
37690;BME280;23527;48.150;11.610;2022-08-04T16:39:18;95484.22;;;39.84;16.32
37690;BME280;23527;48.150;11.610;2022-08-04T16:42:31;95484.16;;;39.80;16.22
37690;BME280;23527;48.150;11.610;2022-08-04T16:48:41;95487.44;;;39.70;16.18
37690;BME280;23527;48.150;11.610;2022-08-04T16:55:02;95470.38;;;39.54;15.89
37690;BME280;23527;48.150;11.610;2022-08-04T16:58:02;95472.59;;;39.48;15.90
37690;BME280;23527;48.150;11.610;2022-08-04T17:01:13;95469.09;;;39.48;15.88
37690;BME280;23527;48.150;11.610;2022-08-04T17:04:15;95466.19;;;39.41;15.95
37690;BME280;23527;48.150;11.610;2022-08-04T17:07:15;95463.75;;;39.36;16.60
37690;BME280;23527;48.150;11.610;2022-08-04T17:10:15;95467.09;;;39.29;16.34
37690;BME280;23527;48.150;11.610;2022-08-04T17:16:22;95472.31;;;39.18;16.81
37690;BME280;23527;48.150;11.610;2022-08-04T17:19:24;95467.75;;;39.23;16.57
37690;BME280;23527;48.150;11.610;2022-08-04T17:22:24;95467.66;;;39.19;16.37
37690;BME280;23527;48.150;11.610;2022-08-04T17:25:24;95463.00;;;39.19;16.56
37690;BME280;23527;48.150;11.610;2022-08-04T17:28:25;95460.84;;;39.09;16.75
37690;BME280;23527;48.150;11.610;2022-08-04T17:31:26;95462.97;;;39.00;16.49
37690;BME280;23527;48.150;11.610;2022-08-04T17:34:26;95462.25;;;39.03;17.06
37690;BME280;23527;48.150;11.610;2022-08-04T17:37:27;95461.63;;;38.94;17.27
37690;BME280;23527;48.150;11.610;2022-08-04T17:40:27;95456.81;;;38.88;18.23
37690;BME280;23527;48.150;11.610;2022-08-04T17:44:02;95453.47;;;38.78;19.35
37690;BME280;23527;48.150;11.610;2022-08-04T17:46:54;95458.44;;;38.73;19.17
37690;BME280;23527;48.150;11.610;2022-08-04T17:50:05;95457.09;;;38.67;19.83
37690;BME280;23527;48.150;11.610;2022-08-04T17:53:05;95448.78;;;38.60;19.88
37690;BME280;23527;48.150;11.610;2022-08-04T17:56:05;95459.81;;;38.51;20.13
37690;BME280;23527;48.150;11.610;2022-08-04T17:59:06;95455.53;;;38.34;20.97
37690;BME280;23527;48.150;11.610;2022-08-04T18:02:07;95456.03;;;38.24;21.38
37690;BME280;23527;48.150;11.610;2022-08-04T18:05:07;95464.81;;;38.18;21.77
37690;BME280;23527;48.150;11.610;2022-08-04T18:08:08;95462.94;;;38.06;21.99
37690;BME280;23527;48.150;11.610;2022-08-04T18:11:16;95468.72;;;38.04;21.75
37690;BME280;23527;48.150;11.610;2022-08-04T18:14:17;95458.34;;;37.94;22.11
37690;BME280;23527;48.150;11.610;2022-08-04T18:20:30;95464.31;;;37.72;22.68
37690;BME280;23527;48.150;11.610;2022-08-04T18:23:31;95456.00;;;37.65;22.57
37690;BME280;23527;48.150;11.610;2022-08-04T18:26:31;95465.41;;;37.55;23.07
37690;BME280;23527;48.150;11.610;2022-08-04T18:29:32;95472.09;;;37.45;23.69
37690;BME280;23527;48.150;11.610;2022-08-04T18:32:32;95473.38;;;37.36;23.55
37690;BME280;23527;48.150;11.610;2022-08-04T18:35:33;95472.72;;;37.27;23.43
37690;BME280;23527;48.150;11.610;2022-08-04T18:38:34;95470.47;;;37.17;23.55
37690;BME280;23527;48.150;11.610;2022-08-04T18:41:34;95474.88;;;37.09;24.15
37690;BME280;23527;48.150;11.610;2022-08-04T18:44:35;95481.13;;;36.97;24.07
37690;BME280;23527;48.150;11.610;2022-08-04T18:47:35;95488.69;;;36.92;23.81
37690;BME280;23527;48.150;11.610;2022-08-04T18:50:35;95490.28;;;36.81;23.87
37690;BME280;23527;48.150;11.610;2022-08-04T18:53:35;95484.66;;;36.73;24.31
37690;BME280;23527;48.150;11.610;2022-08-04T18:56:36;95491.41;;;36.67;24.51
37690;BME280;23527;48.150;11.610;2022-08-04T18:59:36;95491.19;;;36.60;24.54
37690;BME280;23527;48.150;11.610;2022-08-04T19:02:36;95494.09;;;36.55;25.07
37690;BME280;23527;48.150;11.610;2022-08-04T19:05:36;95503.94;;;36.48;25.38
37690;BME280;23527;48.150;11.610;2022-08-04T19:08:37;95497.47;;;36.40;24.70
37690;BME280;23527;48.150;11.610;2022-08-04T19:11:37;95508.09;;;36.33;25.22
37690;BME280;23527;48.150;11.610;2022-08-04T19:14:37;95503.69;;;36.28;25.62
37690;BME280;23527;48.150;11.610;2022-08-04T19:17:38;95501.84;;;36.20;25.97
37690;BME280;23527;48.150;11.610;2022-08-04T19:20:39;95505.06;;;36.14;25.57
37690;BME280;23527;48.150;11.610;2022-08-04T19:23:39;95505.06;;;36.14;25.24
37690;BME280;23527;48.150;11.610;2022-08-04T19:26:39;95516.91;;;36.09;25.76
37690;BME280;23527;48.150;11.610;2022-08-04T19:29:39;95519.88;;;36.04;25.91
37690;BME280;23527;48.150;11.610;2022-08-04T19:32:39;95516.22;;;36.00;25.58
37690;BME280;23527;48.150;11.610;2022-08-04T19:35:40;95525.72;;;35.94;25.60
37690;BME280;23527;48.150;11.610;2022-08-04T19:38:41;95528.28;;;35.90;25.55
37690;BME280;23527;48.150;11.610;2022-08-04T19:41:42;95522.59;;;35.83;25.73
37690;BME280;23527;48.150;11.610;2022-08-04T19:44:42;95532.22;;;35.81;25.62
37690;BME280;23527;48.150;11.610;2022-08-04T19:47:43;95541.31;;;35.76;26.07
37690;BME280;23527;48.150;11.610;2022-08-04T19:50:44;95534.16;;;35.71;25.82
37690;BME280;23527;48.150;11.610;2022-08-04T19:53:44;95533.56;;;35.66;25.90
37690;BME280;23527;48.150;11.610;2022-08-04T19:56:44;95538.38;;;35.60;25.50